sensor_id;sensor_type;location;lat;lon;timestamp;pressure;altitude;pressure_sealevel;temperature;humidity
70555;BME280;58104;52.744;15.242;2023-02-02T00:02:05;99765.98;;;16.83;41.65
70555;BME280;58104;52.744;15.242;2023-02-02T00:04:32;99761.99;;;16.89;41.49
70555;BME280;58104;52.744;15.242;2023-02-02T00:06:56;99756.31;;;16.89;41.55
70555;BME280;58104;52.744;15.242;2023-02-02T00:09:22;99754.73;;;16.82;41.63
70555;BME280;58104;52.744;15.242;2023-02-02T00:11:48;99755.36;;;16.90;41.75
70555;BME280;58104;52.744;15.242;2023-02-02T00:14:12;99753.74;;;16.83;41.94
70555;BME280;58104;52.744;15.242;2023-02-02T00:16:40;99744.82;;;16.82;41.75
70555;BME280;58104;52.744;15.242;2023-02-02T00:19:05;99731.59;;;16.91;41.63
70555;BME280;58104;52.744;15.242;2023-02-02T00:21:28;99739.09;;;16.85;41.84
70555;BME280;58104;52.744;15.242;2023-02-02T00:23:54;99734.01;;;16.93;41.75
70555;BME280;58104;52.744;15.242;2023-02-02T00:26:19;99730.63;;;16.85;41.71
70555;BME280;58104;52.744;15.242;2023-02-02T00:28:45;99719.39;;;16.93;41.72
70555;BME280;58104;52.744;15.242;2023-02-02T00:31:10;99711.14;;;16.91;41.91
70555;BME280;58104;52.744;15.242;2023-02-02T00:33:35;99702.99;;;16.85;42.07
70555;BME280;58104;52.744;15.242;2023-02-02T00:36:01;99689.21;;;16.89;41.77
70555;BME280;58104;52.744;15.242;2023-02-02T00:38:26;99679.38;;;16.83;42.02
70555;BME280;58104;52.744;15.242;2023-02-02T00:40:52;99677.23;;;16.92;42.11
70555;BME280;58104;52.744;15.242;2023-02-02T00:43:17;99677.25;;;16.90;42.16
70555;BME280;58104;52.744;15.242;2023-02-02T00:45:42;99673.24;;;16.87;42.27
70555;BME280;58104;52.744;15.242;2023-02-02T00:48:08;99682.72;;;16.88;42.16
70555;BME280;58104;52.744;15.242;2023-02-02T00:50:33;99670.06;;;16.84;42.25
70555;BME280;58104;52.744;15.242;2023-02-02T00:52:59;99667.31;;;16.81;42.33
70555;BME280;58104;52.744;15.242;2023-02-02T00:55:25;99666.07;;;16.86;42.18
70555;BME280;58104;52.744;15.242;2023-02-02T00:57:50;99655.33;;;16.98;42.20
70555;BME280;58104;52.744;15.242;2023-02-02T01:00:18;99654.66;;;16.84;42.49
70555;BME280;58104;52.744;15.242;2023-02-02T01:02:41;99654.06;;;16.86;42.57
70555;BME280;58104;52.744;15.242;2023-02-02T01:05:06;99643.20;;;16.86;42.38
70555;BME280;58104;52.744;15.242;2023-02-02T01:07:31;99632.69;;;16.89;42.65
70555;BME280;58104;52.744;15.242;2023-02-02T01:09:57;99647.23;;;16.85;43.03
70555;BME280;58104;52.744;15.242;2023-02-02T01:12:22;99634.69;;;16.92;43.17
70555;BME280;58104;52.744;15.242;2023-02-02T01:14:48;99640.60;;;16.98;43.10
70555;BME280;58104;52.744;15.242;2023-02-02T01:17:13;99629.69;;;16.93;42.99
70555;BME280;58104;52.744;15.242;2023-02-02T01:19:39;99630.95;;;16.96;43.17
70555;BME280;58104;52.744;15.242;2023-02-02T01:22:04;99622.13;;;16.92;43.17
70555;BME280;58104;52.744;15.242;2023-02-02T01:24:30;99619.28;;;16.98;42.95
70555;BME280;58104;52.744;15.242;2023-02-02T01:26:55;99624.47;;;16.95;43.18
70555;BME280;58104;52.744;15.242;2023-02-02T01:29:20;99618.62;;;17.00;42.97
70555;BME280;58104;52.744;15.242;2023-02-02T01:31:46;99608.36;;;16.90;43.33
70555;BME280;58104;52.744;15.242;2023-02-02T01:34:11;99603.84;;;16.95;43.23
70555;BME280;58104;52.744;15.242;2023-02-02T01:36:37;99585.87;;;16.99;43.33
70555;BME280;58104;52.744;15.242;2023-02-02T01:39:02;99594.53;;;16.88;43.35
70555;BME280;58104;52.744;15.242;2023-02-02T01:41:28;99588.98;;;16.96;43.33
70555;BME280;58104;52.744;15.242;2023-02-02T01:43:56;99586.24;;;16.95;43.40
70555;BME280;58104;52.744;15.242;2023-02-02T01:46:20;99569.95;;;16.93;43.45
70555;BME280;58104;52.744;15.242;2023-02-02T01:48:47;99585.07;;;16.91;43.59
70555;BME280;58104;52.744;15.242;2023-02-02T01:51:13;99580.76;;;16.89;43.75
70555;BME280;58104;52.744;15.242;2023-02-02T01:53:35;99571.77;;;17.01;43.85
70555;BME280;58104;52.744;15.242;2023-02-02T01:56:02;99564.01;;;16.84;43.77
70555;BME280;58104;52.744;15.242;2023-02-02T01:58:29;99557.38;;;16.94;44.07
70555;BME280;58104;52.744;15.242;2023-02-02T02:00:52;99553.48;;;16.90;44.01
70555;BME280;58104;52.744;15.242;2023-02-02T02:03:19;99559.58;;;16.84;44.13
70555;BME280;58104;52.744;15.242;2023-02-02T02:05:47;99564.96;;;16.97;44.35
70555;BME280;58104;52.744;15.242;2023-02-02T02:08:13;99553.68;;;17.05;44.60
70555;BME280;58104;52.744;15.242;2023-02-02T02:10:33;99556.11;;;16.99;44.59
70555;BME280;58104;52.744;15.242;2023-02-02T02:12:58;99538.56;;;16.94;44.32
70555;BME280;58104;52.744;15.242;2023-02-02T02:15:25;99542.70;;;16.95;44.72
70555;BME280;58104;52.744;15.242;2023-02-02T02:17:59;99552.62;;;17.03;44.77
70555;BME280;58104;52.744;15.242;2023-02-02T02:22:50;99557.51;;;17.02;44.67
70555;BME280;58104;52.744;15.242;2023-02-02T02:25:22;99567.71;;;17.13;44.80
70555;BME280;58104;52.744;15.242;2023-02-02T02:27:41;99557.57;;;17.04;45.18
70555;BME280;58104;52.744;15.242;2023-02-02T02:30:08;99559.88;;;17.05;45.11
70555;BME280;58104;52.744;15.242;2023-02-02T02:32:26;99570.40;;;16.96;45.40
70555;BME280;58104;52.744;15.242;2023-02-02T02:34:52;99569.26;;;17.08;45.44
70555;BME280;58104;52.744;15.242;2023-02-02T02:37:18;99569.76;;;17.06;45.44
70555;BME280;58104;52.744;15.242;2023-02-02T02:39:42;99565.45;;;17.08;45.54
70555;BME280;58104;52.744;15.242;2023-02-02T02:42:08;99577.67;;;17.15;45.51
70555;BME280;58104;52.744;15.242;2023-02-02T02:44:30;99575.50;;;17.19;45.70
70555;BME280;58104;52.744;15.242;2023-02-02T02:46:55;99573.24;;;17.19;45.71
70555;BME280;58104;52.744;15.242;2023-02-02T02:49:20;99576.45;;;17.06;45.62
70555;BME280;58104;52.744;15.242;2023-02-02T02:51:47;99590.78;;;17.10;45.85
70555;BME280;58104;52.744;15.242;2023-02-02T02:54:14;99590.57;;;17.17;45.61
70555;BME280;58104;52.744;15.242;2023-02-02T02:56:43;99608.72;;;17.19;45.86
70555;BME280;58104;52.744;15.242;2023-02-02T02:59:08;99601.85;;;17.21;45.97
70555;BME280;58104;52.744;15.242;2023-02-02T03:01:30;99615.98;;;17.25;45.67
70555;BME280;58104;52.744;15.242;2023-02-02T03:04:02;99608.61;;;17.25;45.87
70555;BME280;58104;52.744;15.242;2023-02-02T03:06:22;99601.56;;;17.26;45.78
70555;BME280;58104;52.744;15.242;2023-02-02T03:08:47;99621.15;;;17.14;45.91
70555;BME280;58104;52.744;15.242;2023-02-02T03:11:11;99618.05;;;17.20;45.92
70555;BME280;58104;52.744;15.242;2023-02-02T03:13:34;99631.01;;;17.18;45.97
70555;BME280;58104;52.744;15.242;2023-02-02T03:16:00;99635.99;;;17.24;45.95
70555;BME280;58104;52.744;15.242;2023-02-02T03:18:28;99632.11;;;17.27;45.85
70555;BME280;58104;52.744;15.242;2023-02-02T03:20:50;99649.73;;;17.20;46.06
70555;BME280;58104;52.744;15.242;2023-02-02T03:23:16;99637.71;;;17.26;46.08
70555;BME280;58104;52.744;15.242;2023-02-02T03:25:42;99656.39;;;17.33;46.31
70555;BME280;58104;52.744;15.242;2023-02-02T03:28:07;99656.11;;;17.34;46.04
70555;BME280;58104;52.744;15.242;2023-02-02T03:30:32;99659.88;;;17.39;46.22
70555;BME280;58104;52.744;15.242;2023-02-02T03:32:58;99661.53;;;17.40;46.38
70555;BME280;58104;52.744;15.242;2023-02-02T03:35:23;99666.17;;;17.37;46.39
70555;BME280;58104;52.744;15.242;2023-02-02T03:37:48;99664.87;;;17.36;46.35
70555;BME280;58104;52.744;15.242;2023-02-02T03:40:14;99671.96;;;17.37;46.83
70555;BME280;58104;52.744;15.242;2023-02-02T03:42:39;99677.55;;;17.33;46.90
70555;BME280;58104;52.744;15.242;2023-02-02T03:45:06;99681.08;;;17.45;46.88
70555;BME280;58104;52.744;15.242;2023-02-02T03:47:30;99690.40;;;17.46;46.81
70555;BME280;58104;52.744;15.242;2023-02-02T03:49:56;99705.71;;;17.45;46.78
70555;BME280;58104;52.744;15.242;2023-02-02T03:52:21;99687.99;;;17.46;46.68
70555;BME280;58104;52.744;15.242;2023-02-02T03:54:46;99706.10;;;17.46;47.04
70555;BME280;58104;52.744;15.242;2023-02-02T03:57:12;99724.87;;;17.44;47.09
70555;BME280;58104;52.744;15.242;2023-02-02T03:59:37;99719.87;;;17.41;47.32
70555;BME280;58104;52.744;15.242;2023-02-02T04:02:03;99717.20;;;17.50;47.35
70555;BME280;58104;52.744;15.242;2023-02-02T04:04:28;99742.95;;;17.51;47.63
70555;BME280;58104;52.744;15.242;2023-02-02T04:06:54;99734.72;;;17.54;47.68
70555;BME280;58104;52.744;15.242;2023-02-02T04:09:19;99760.32;;;17.57;47.46
70555;BME280;58104;52.744;15.242;2023-02-02T04:11:45;99762.26;;;17.57;47.80
70555;BME280;58104;52.744;15.242;2023-02-02T04:14:10;99767.82;;;17.55;47.85
70555;BME280;58104;52.744;15.242;2023-02-02T04:16:35;99768.78;;;17.46;47.95
70555;BME280;58104;52.744;15.242;2023-02-02T04:19:01;99776.58;;;17.54;47.86
70555;BME280;58104;52.744;15.242;2023-02-02T04:21:26;99789.44;;;17.60;47.83
70555;BME280;58104;52.744;15.242;2023-02-02T04:23:52;99781.12;;;17.61;47.77
70555;BME280;58104;52.744;15.242;2023-02-02T04:26:17;99781.53;;;17.60;47.81
70555;BME280;58104;52.744;15.242;2023-02-02T04:28:43;99793.02;;;17.56;47.71
70555;BME280;58104;52.744;15.242;2023-02-02T04:31:08;99789.93;;;17.58;47.53
70555;BME280;58104;52.744;15.242;2023-02-02T04:33:33;99818.46;;;17.57;47.86
70555;BME280;58104;52.744;15.242;2023-02-02T04:35:59;99806.78;;;17.57;47.71
70555;BME280;58104;52.744;15.242;2023-02-02T04:38:25;99807.65;;;17.53;47.55
70555;BME280;58104;52.744;15.242;2023-02-02T04:40:50;99813.50;;;17.55;47.86
70555;BME280;58104;52.744;15.242;2023-02-02T04:43:15;99836.36;;;17.55;47.73
70555;BME280;58104;52.744;15.242;2023-02-02T04:45:41;99844.15;;;17.48;47.60
70555;BME280;58104;52.744;15.242;2023-02-02T04:48:06;99839.25;;;17.53;47.47
70555;BME280;58104;52.744;15.242;2023-02-02T04:50:32;99863.72;;;17.62;47.73
70555;BME280;58104;52.744;15.242;2023-02-02T04:52:57;99863.09;;;17.59;47.72
70555;BME280;58104;52.744;15.242;2023-02-02T04:55:23;99866.77;;;17.64;47.59
70555;BME280;58104;52.744;15.242;2023-02-02T04:57:48;99870.90;;;17.54;47.62
70555;BME280;58104;52.744;15.242;2023-02-02T05:00:14;99882.80;;;17.62;47.88
70555;BME280;58104;52.744;15.242;2023-02-02T05:02:39;99884.41;;;17.66;48.02
70555;BME280;58104;52.744;15.242;2023-02-02T05:05:07;99895.07;;;17.67;48.06
70555;BME280;58104;52.744;15.242;2023-02-02T05:07:29;99906.22;;;17.66;48.00
70555;BME280;58104;52.744;15.242;2023-02-02T05:09:55;99907.70;;;17.66;47.88
70555;BME280;58104;52.744;15.242;2023-02-02T05:12:20;99900.19;;;17.68;47.75
70555;BME280;58104;52.744;15.242;2023-02-02T05:14:46;99916.58;;;17.66;48.04
70555;BME280;58104;52.744;15.242;2023-02-02T05:17:11;99931.38;;;17.65;47.87
70555;BME280;58104;52.744;15.242;2023-02-02T05:19:37;99923.99;;;17.68;47.96
70555;BME280;58104;52.744;15.242;2023-02-02T05:22:02;99934.29;;;17.72;47.90
70555;BME280;58104;52.744;15.242;2023-02-02T05:24:28;99960.06;;;17.54;48.18
70555;BME280;58104;52.744;15.242;2023-02-02T05:26:53;99954.34;;;17.67;48.24
70555;BME280;58104;52.744;15.242;2023-02-02T05:29:18;99968.03;;;17.65;48.23
70555;BME280;58104;52.744;15.242;2023-02-02T05:31:44;99969.87;;;17.69;48.32
70555;BME280;58104;52.744;15.242;2023-02-02T05:34:09;99984.47;;;17.55;48.14
70555;BME280;58104;52.744;15.242;2023-02-02T05:36:35;99989.20;;;17.61;48.76
70555;BME280;58104;52.744;15.242;2023-02-02T05:39:00;99998.02;;;17.73;48.43
70555;BME280;58104;52.744;15.242;2023-02-02T05:41:26;100010.84;;;17.67;48.53
70555;BME280;58104;52.744;15.242;2023-02-02T05:43:51;100001.51;;;17.70;48.77
70555;BME280;58104;52.744;15.242;2023-02-02T05:46:16;100017.67;;;17.69;48.83
70555;BME280;58104;52.744;15.242;2023-02-02T05:48:42;100036.24;;;17.72;48.68
70555;BME280;58104;52.744;15.242;2023-02-02T05:51:13;100045.93;;;17.68;48.68
70555;BME280;58104;52.744;15.242;2023-02-02T05:53:33;100045.58;;;17.61;48.96
70555;BME280;58104;52.744;15.242;2023-02-02T05:55:58;100050.92;;;17.68;48.77
70555;BME280;58104;52.744;15.242;2023-02-02T05:58:24;100066.44;;;17.58;48.97
70555;BME280;58104;52.744;15.242;2023-02-02T06:00:49;100074.13;;;17.70;48.75
70555;BME280;58104;52.744;15.242;2023-02-02T06:03:15;100086.50;;;17.60;49.39
70555;BME280;58104;52.744;15.242;2023-02-02T06:05:40;100089.73;;;17.77;49.62
70555;BME280;58104;52.744;15.242;2023-02-02T06:08:05;100095.88;;;17.82;50.64
70555;BME280;58104;52.744;15.242;2023-02-02T06:10:31;100098.60;;;17.90;50.52
70555;BME280;58104;52.744;15.242;2023-02-02T06:12:56;100106.54;;;17.91;49.78
70555;BME280;58104;52.744;15.242;2023-02-02T06:15:22;100112.74;;;17.92;49.52
70555;BME280;58104;52.744;15.242;2023-02-02T06:17:47;100109.88;;;17.86;49.65
70555;BME280;58104;52.744;15.242;2023-02-02T06:20:13;100116.55;;;17.82;49.50
70555;BME280;58104;52.744;15.242;2023-02-02T06:22:38;100121.12;;;17.86;49.57
70555;BME280;58104;52.744;15.242;2023-02-02T06:25:04;100116.18;;;17.91;49.51
70555;BME280;58104;52.744;15.242;2023-02-02T06:27:29;100125.78;;;17.79;49.39
70555;BME280;58104;52.744;15.242;2023-02-02T06:29:54;100129.38;;;17.77;49.43
70555;BME280;58104;52.744;15.242;2023-02-02T06:32:20;100136.71;;;17.90;49.30
70555;BME280;58104;52.744;15.242;2023-02-02T06:34:45;100139.40;;;17.88;49.28
70555;BME280;58104;52.744;15.242;2023-02-02T06:37:11;100146.72;;;17.89;49.21
70555;BME280;58104;52.744;15.242;2023-02-02T06:39:36;100151.96;;;17.81;49.20
70555;BME280;58104;52.744;15.242;2023-02-02T06:42:01;100158.41;;;17.83;49.20
70555;BME280;58104;52.744;15.242;2023-02-02T06:44:27;100159.73;;;17.74;49.24
70555;BME280;58104;52.744;15.242;2023-02-02T06:46:52;100162.32;;;17.87;49.16
70555;BME280;58104;52.744;15.242;2023-02-02T06:49:18;100170.41;;;17.84;49.34
70555;BME280;58104;52.744;15.242;2023-02-02T06:51:43;100174.26;;;17.88;50.05
70555;BME280;58104;52.744;15.242;2023-02-02T06:54:09;100189.17;;;18.00;49.79
70555;BME280;58104;52.744;15.242;2023-02-02T06:56:34;100191.78;;;18.00;49.69
70555;BME280;58104;52.744;15.242;2023-02-02T06:58:59;100192.16;;;17.92;49.87
70555;BME280;58104;52.744;15.242;2023-02-02T07:01:25;100203.71;;;17.79;46.76
70555;BME280;58104;52.744;15.242;2023-02-02T07:03:50;100203.24;;;17.73;45.96
70555;BME280;58104;52.744;15.242;2023-02-02T07:06:18;100205.09;;;17.61;43.77
70555;BME280;58104;52.744;15.242;2023-02-02T07:08:41;100213.50;;;17.46;42.85
70555;BME280;58104;52.744;15.242;2023-02-02T07:11:06;100216.89;;;17.47;42.94
70555;BME280;58104;52.744;15.242;2023-02-02T07:13:32;100224.50;;;17.53;42.55
70555;BME280;58104;52.744;15.242;2023-02-02T07:15:57;100233.15;;;17.55;42.13
70555;BME280;58104;52.744;15.242;2023-02-02T07:18:23;100236.17;;;17.40;42.20
70555;BME280;58104;52.744;15.242;2023-02-02T07:20:48;100239.24;;;17.35;42.02
70555;BME280;58104;52.744;15.242;2023-02-02T07:23:14;100250.97;;;17.37;42.59
70555;BME280;58104;52.744;15.242;2023-02-02T07:25:39;100251.26;;;17.34;41.88
70555;BME280;58104;52.744;15.242;2023-02-02T07:28:05;100256.08;;;16.80;39.13
70555;BME280;58104;52.744;15.242;2023-02-02T07:30:30;100261.97;;;16.50;41.76
70555;BME280;58104;52.744;15.242;2023-02-02T07:32:55;100267.75;;;16.20;40.67
70555;BME280;58104;52.744;15.242;2023-02-02T07:35:21;100278.20;;;14.98;41.17
70555;BME280;58104;52.744;15.242;2023-02-02T07:37:50;100277.85;;;14.77;43.01
70555;BME280;58104;52.744;15.242;2023-02-02T07:40:12;100281.75;;;15.09;43.80
70555;BME280;58104;52.744;15.242;2023-02-02T07:42:37;100289.94;;;14.64;42.75
70555;BME280;58104;52.744;15.242;2023-02-02T07:45:03;100291.88;;;14.62;42.20
70555;BME280;58104;52.744;15.242;2023-02-02T07:47:28;100291.73;;;14.61;41.95
70555;BME280;58104;52.744;15.242;2023-02-02T07:49:54;100308.21;;;14.48;43.73
70555;BME280;58104;52.744;15.242;2023-02-02T07:52:19;100306.42;;;15.43;46.17
70555;BME280;58104;52.744;15.242;2023-02-02T07:54:45;100312.52;;;15.77;45.07
70555;BME280;58104;52.744;15.242;2023-02-02T07:57:10;100317.09;;;16.06;44.21
70555;BME280;58104;52.744;15.242;2023-02-02T07:59:36;100324.99;;;16.28;43.81
70555;BME280;58104;52.744;15.242;2023-02-02T08:02:01;100331.75;;;16.54;44.43
70555;BME280;58104;52.744;15.242;2023-02-02T08:04:26;100335.84;;;16.82;44.30
70555;BME280;58104;52.744;15.242;2023-02-02T08:06:52;100337.58;;;17.03;44.70
70555;BME280;58104;52.744;15.242;2023-02-02T08:09:17;100343.63;;;17.18;44.62
70555;BME280;58104;52.744;15.242;2023-02-02T08:11:43;100343.83;;;17.44;44.47
70555;BME280;58104;52.744;15.242;2023-02-02T08:14:11;100348.85;;;17.57;43.54
70555;BME280;58104;52.744;15.242;2023-02-02T08:16:34;100354.19;;;17.68;43.45
70555;BME280;58104;52.744;15.242;2023-02-02T08:19:00;100363.78;;;17.37;43.97
70555;BME280;58104;52.744;15.242;2023-02-02T08:21:25;100366.85;;;17.39;44.17
70555;BME280;58104;52.744;15.242;2023-02-02T08:23:51;100373.88;;;17.54;43.96
70555;BME280;58104;52.744;15.242;2023-02-02T08:26:17;100373.68;;;17.54;44.17
70555;BME280;58104;52.744;15.242;2023-02-02T08:28:42;100372.64;;;17.84;43.75
70555;BME280;58104;52.744;15.242;2023-02-02T08:31:09;100380.27;;;18.13;43.11
70555;BME280;58104;52.744;15.242;2023-02-02T08:33:31;100380.49;;;18.33;42.80
70555;BME280;58104;52.744;15.242;2023-02-02T08:35:57;100390.13;;;18.50;42.71
70555;BME280;58104;52.744;15.242;2023-02-02T08:38:23;100390.95;;;18.63;42.39
70555;BME280;58104;52.744;15.242;2023-02-02T08:40:48;100397.91;;;18.73;42.47
70555;BME280;58104;52.744;15.242;2023-02-02T08:43:13;100404.67;;;18.79;42.39
70555;BME280;58104;52.744;15.242;2023-02-02T08:45:41;100408.68;;;18.87;42.43
70555;BME280;58104;52.744;15.242;2023-02-02T08:48:04;100409.30;;;18.97;42.27
70555;BME280;58104;52.744;15.242;2023-02-02T08:50:29;100413.91;;;18.98;42.39
70555;BME280;58104;52.744;15.242;2023-02-02T08:52:55;100415.81;;;19.01;42.22
70555;BME280;58104;52.744;15.242;2023-02-02T08:55:20;100418.71;;;19.06;42.19
70555;BME280;58104;52.744;15.242;2023-02-02T08:57:46;100424.70;;;19.15;42.06
70555;BME280;58104;52.744;15.242;2023-02-02T09:00:12;100422.70;;;19.05;42.07
70555;BME280;58104;52.744;15.242;2023-02-02T09:02:36;100425.46;;;19.17;41.85
70555;BME280;58104;52.744;15.242;2023-02-02T09:05:02;100434.03;;;19.19;41.96
70555;BME280;58104;52.744;15.242;2023-02-02T09:07:27;100444.04;;;19.11;41.92
70555;BME280;58104;52.744;15.242;2023-02-02T09:09:53;100453.74;;;19.40;41.43
70555;BME280;58104;52.744;15.242;2023-02-02T09:12:18;100464.57;;;19.48;38.52
70555;BME280;58104;52.744;15.242;2023-02-02T09:14:43;100458.88;;;19.57;38.66
70555;BME280;58104;52.744;15.242;2023-02-02T09:17:09;100470.56;;;19.63;37.96
70555;BME280;58104;52.744;15.242;2023-02-02T09:19:35;100470.12;;;19.58;37.27
70555;BME280;58104;52.744;15.242;2023-02-02T09:22:00;100470.69;;;19.52;37.27
70555;BME280;58104;52.744;15.242;2023-02-02T09:24:26;100481.26;;;19.62;36.86
70555;BME280;58104;52.744;15.242;2023-02-02T09:26:51;100480.16;;;19.63;36.82
70555;BME280;58104;52.744;15.242;2023-02-02T09:29:17;100483.53;;;19.93;37.16
70555;BME280;58104;52.744;15.242;2023-02-02T09:31:42;100491.01;;;19.94;37.46
70555;BME280;58104;52.744;15.242;2023-02-02T09:34:09;100495.45;;;19.93;37.89
70555;BME280;58104;52.744;15.242;2023-02-02T09:36:33;100498.91;;;20.01;38.21
70555;BME280;58104;52.744;15.242;2023-02-02T09:38:58;100512.13;;;19.69;38.87
70555;BME280;58104;52.744;15.242;2023-02-02T09:43:54;100509.28;;;19.80;39.05
70555;BME280;58104;52.744;15.242;2023-02-02T09:46:20;100518.15;;;19.81;39.27
70555;BME280;58104;52.744;15.242;2023-02-02T09:48:45;100519.22;;;19.87;39.31
70555;BME280;58104;52.744;15.242;2023-02-02T09:51:11;100517.30;;;20.00;39.10
70555;BME280;58104;52.744;15.242;2023-02-02T09:53:39;100514.02;;;20.08;38.84
70555;BME280;58104;52.744;15.242;2023-02-02T09:55:58;100522.79;;;20.03;38.58
70555;BME280;58104;52.744;15.242;2023-02-02T09:58:25;100511.63;;;20.09;38.96
70555;BME280;58104;52.744;15.242;2023-02-02T10:00:53;100528.69;;;20.29;39.04
70555;BME280;58104;52.744;15.242;2023-02-02T10:03:16;100535.25;;;20.32;39.01
70555;BME280;58104;52.744;15.242;2023-02-02T10:05:46;100532.01;;;20.39;39.04
70555;BME280;58104;52.744;15.242;2023-02-02T10:08:06;100539.90;;;20.48;38.96
70555;BME280;58104;52.744;15.242;2023-02-02T10:10:33;100528.71;;;20.51;38.92
70555;BME280;58104;52.744;15.242;2023-02-02T10:12:58;100541.26;;;20.57;38.95
70555;BME280;58104;52.744;15.242;2023-02-02T10:15:27;100548.52;;;20.46;39.11
70555;BME280;58104;52.744;15.242;2023-02-02T10:17:48;100559.28;;;20.63;39.13
70555;BME280;58104;52.744;15.242;2023-02-02T10:20:19;100552.76;;;20.71;39.03
70555;BME280;58104;52.744;15.242;2023-02-02T10:22:36;100554.12;;;20.71;39.06
70555;BME280;58104;52.744;15.242;2023-02-02T10:25:01;100558.22;;;20.63;39.26
70555;BME280;58104;52.744;15.242;2023-02-02T10:27:32;100561.33;;;20.62;39.45
70555;BME280;58104;52.744;15.242;2023-02-02T10:29:55;100562.67;;;20.56;39.63
70555;BME280;58104;52.744;15.242;2023-02-02T10:32:22;100573.10;;;20.46;39.84
70555;BME280;58104;52.744;15.242;2023-02-02T10:34:52;100580.91;;;20.44;40.17
70555;BME280;58104;52.744;15.242;2023-02-02T10:37:20;100574.74;;;20.40;40.33
70555;BME280;58104;52.744;15.242;2023-02-02T10:39:43;100583.75;;;20.43;40.37
70555;BME280;58104;52.744;15.242;2023-02-02T10:42:10;100580.61;;;20.41;40.32
70555;BME280;58104;52.744;15.242;2023-02-02T10:44:31;100593.28;;;20.38;40.44
70555;BME280;58104;52.744;15.242;2023-02-02T10:46:53;100594.99;;;20.31;40.82
70555;BME280;58104;52.744;15.242;2023-02-02T10:49:23;100597.73;;;20.23;40.94
70555;BME280;58104;52.744;15.242;2023-02-02T10:51:45;100605.59;;;20.11;41.17
70555;BME280;58104;52.744;15.242;2023-02-02T10:54:18;100604.03;;;20.16;41.42
70555;BME280;58104;52.744;15.242;2023-02-02T10:56:36;100610.59;;;20.10;41.26
70555;BME280;58104;52.744;15.242;2023-02-02T10:59:04;100625.00;;;20.20;41.39
70555;BME280;58104;52.744;15.242;2023-02-02T11:01:23;100603.04;;;20.10;41.47
70555;BME280;58104;52.744;15.242;2023-02-02T11:03:48;100623.50;;;20.25;41.38
70555;BME280;58104;52.744;15.242;2023-02-02T11:06:14;100629.96;;;19.99;41.98
70555;BME280;58104;52.744;15.242;2023-02-02T11:08:41;100631.32;;;20.08;41.84
70555;BME280;58104;52.744;15.242;2023-02-02T11:11:11;100638.22;;;20.15;42.07
70555;BME280;58104;52.744;15.242;2023-02-02T11:13:32;100643.55;;;20.05;42.28
70555;BME280;58104;52.744;15.242;2023-02-02T11:18:27;100651.14;;;20.07;42.46
70555;BME280;58104;52.744;15.242;2023-02-02T11:20:46;100650.48;;;20.00;42.47
70555;BME280;58104;52.744;15.242;2023-02-02T11:23:17;100656.73;;;20.05;42.50
70555;BME280;58104;52.744;15.242;2023-02-02T11:25:37;100657.64;;;20.05;42.53
70555;BME280;58104;52.744;15.242;2023-02-02T11:28:11;100651.20;;;20.10;42.30
70555;BME280;58104;52.744;15.242;2023-02-02T11:30:31;100647.88;;;20.13;42.28
70555;BME280;58104;52.744;15.242;2023-02-02T11:32:53;100657.74;;;20.14;42.17
70555;BME280;58104;52.744;15.242;2023-02-02T11:35:21;100651.50;;;20.19;42.24
70555;BME280;58104;52.744;15.242;2023-02-02T11:40:17;100662.88;;;20.34;41.78
70555;BME280;58104;52.744;15.242;2023-02-02T11:42:35;100662.78;;;20.45;41.59
70555;BME280;58104;52.744;15.242;2023-02-02T11:45:00;100664.39;;;20.37;41.46
70555;BME280;58104;52.744;15.242;2023-02-02T11:47:27;100671.86;;;20.44;41.46
70555;BME280;58104;52.744;15.242;2023-02-02T11:49:52;100681.93;;;20.34;41.68
70555;BME280;58104;52.744;15.242;2023-02-02T11:52:18;100684.80;;;20.24;42.13
70555;BME280;58104;52.744;15.242;2023-02-02T11:54:46;100696.02;;;20.34;42.19
70555;BME280;58104;52.744;15.242;2023-02-02T11:57:09;100694.42;;;20.15;41.83
70555;BME280;58104;52.744;15.242;2023-02-02T11:59:35;100698.74;;;20.03;41.94
70555;BME280;58104;52.744;15.242;2023-02-02T12:04:24;100714.86;;;20.01;41.24
70555;BME280;58104;52.744;15.242;2023-02-02T12:06:49;100724.73;;;19.83;41.45
70555;BME280;58104;52.744;15.242;2023-02-02T12:09:18;100734.82;;;19.94;41.47
70555;BME280;58104;52.744;15.242;2023-02-02T12:11:49;100739.57;;;19.94;41.61
70555;BME280;58104;52.744;15.242;2023-02-02T12:14:18;100736.93;;;19.98;41.68
70555;BME280;58104;52.744;15.242;2023-02-02T12:16:41;100737.52;;;20.12;41.64
70555;BME280;58104;52.744;15.242;2023-02-02T12:19:12;100739.83;;;20.02;41.80
70555;BME280;58104;52.744;15.242;2023-02-02T12:21:30;100747.30;;;19.98;41.45
70555;BME280;58104;52.744;15.242;2023-02-02T12:23:56;100752.40;;;19.82;41.82
70555;BME280;58104;52.744;15.242;2023-02-02T12:26:18;100755.06;;;19.92;42.00
70555;BME280;58104;52.744;15.242;2023-02-02T12:31:08;100758.68;;;19.68;42.11
70555;BME280;58104;52.744;15.242;2023-02-02T12:33:33;100759.76;;;19.54;42.12
70555;BME280;58104;52.744;15.242;2023-02-02T12:36:08;100770.63;;;19.72;41.74
70555;BME280;58104;52.744;15.242;2023-02-02T12:38:29;100765.86;;;19.53;40.69
70555;BME280;58104;52.744;15.242;2023-02-02T12:43:21;100774.06;;;19.40;40.56
70555;BME280;58104;52.744;15.242;2023-02-02T12:45:53;100778.73;;;19.60;40.29
70555;BME280;58104;52.744;15.242;2023-02-02T12:48:11;100781.00;;;19.83;39.40
70555;BME280;58104;52.744;15.242;2023-02-02T12:50:30;100783.85;;;19.66;38.57
70555;BME280;58104;52.744;15.242;2023-02-02T12:53:03;100791.54;;;19.55;39.06